Check out our new BloomSky Weather System.

Active alerts

Houston, TX
  Details for Houston, TX River Flood Warning  +1 additional alert
Fort Bend, TX
  Details for Fort Bend, TX River Flood Warning  +2 additional alerts


Thunder radar  blitzortung!


Rain radar more information rain snow radar


Visit our other weather sites:

Template documentation
and downloads

And another site



Weather Underground History page Text

Daily Summary for January 21, 2017 Units:  English    Metric   Both
« Previous Day
Next Day »
Daily Weekly Monthly Yearly Custom
  High: Low: Average:
Temperature: TemperatureF °F 61.3 °F 67.2 °F
Dew Point: DewpointF °F 53.2 °F 62.3 °F
Humidity: Humidity % 54 % 85 %
Wind Speed: WindSpeedMPH mph 0.0 mph 1.8 mph
Wind Gust: WindSpeedGustMPH mph - -
Wind:- - South
Pressure: PressureIn in 29.41 in -
Precipitation: 0.02 in    
Historical Graphs
 
 
Tabular Data for January 21, 2017
Time Temperature Dew Point Pressure Wind Wind Speed Wind Gust Humidity Rainfall Rate (Hourly)
TemperatureF °F DewpointF °F PressureIn in Calm     Humidity % HourlyPrecipIn in
00:02 63.9 °F 63.0 °F 29.67 in ESE 1.0 mph 2.0 mph 97 % 0.23 in
00:07 63.9 °F 63.0 °F 29.66 in ESE 1.0 mph 2.0 mph 97 % 0.11 in
00:12 63.7 °F 63.1 °F 29.66 in Calm   2.0 mph 98 % 0.01 in
00:17 63.7 °F 63.1 °F 29.66 in North 1.0 mph 2.0 mph 98 % 0.00 in
00:22 63.7 °F 63.1 °F 29.66 in Calm   2.0 mph 98 % 0.00 in
00:27 63.5 °F 63.0 °F 29.66 in Calm   1.0 mph 98 % 0.00 in
00:32 63.5 °F 63.0 °F 29.65 in Calm   1.0 mph 98 % 0.00 in
00:37 63.7 °F 63.1 °F 29.65 in Calm   1.0 mph 98 % 0.00 in
00:42 63.7 °F 63.1 °F 29.65 in Calm   1.0 mph 98 % 0.00 in
00:47 63.7 °F 63.1 °F 29.64 in Calm   1.0 mph 98 % 0.00 in
00:52 63.7 °F 63.1 °F 29.64 in Calm   1.0 mph 98 % 0.00 in
00:57 63.7 °F 63.1 °F 29.64 in Calm   1.0 mph 98 % 0.00 in
01:02 63.7 °F 63.1 °F 29.64 in NNW 1.0 mph 1.0 mph 98 % 0.00 in
01:07 63.9 °F 63.3 °F 29.64 in Calm   2.0 mph 98 % 0.00 in
01:12 63.7 °F 63.1 °F 29.64 in Calm   2.0 mph 98 % 0.00 in
01:17 63.9 °F 63.3 °F 29.64 in Calm   2.0 mph 98 % 0.00 in
01:22 63.7 °F 63.1 °F 29.64 in Calm   2.0 mph 98 % 0.00 in
01:27 63.7 °F 63.1 °F 29.64 in Calm   1.0 mph 98 % 0.00 in
01:32 63.7 °F 63.1 °F 29.63 in Calm   1.0 mph 98 % 0.00 in
01:37 63.7 °F 63.1 °F 29.64 in Calm   1.0 mph 98 % 0.00 in
01:42 63.7 °F 63.1 °F 29.64 in Calm   1.0 mph 98 % 0.00 in
01:47 63.7 °F 63.1 °F 29.63 in Calm   1.0 mph 98 % 0.00 in
01:52 63.5 °F 63.0 °F 29.63 in Calm   1.0 mph 98 % 0.00 in
01:57 63.1 °F 62.6 °F 29.63 in Calm   1.0 mph 98 % 0.00 in
02:02 63.1 °F 62.6 °F 29.63 in Calm   1.0 mph 98 % 0.00 in
02:07 63.0 °F 62.4 °F 29.63 in Calm   1.0 mph 98 % 0.00 in
02:12 62.8 °F 62.2 °F 29.63 in Calm   1.0 mph 98 % 0.00 in
02:17 62.8 °F 62.4 °F 29.63 in Calm   1.0 mph 99 % 0.00 in
02:22 62.6 °F 62.1 °F 29.63 in Calm   1.0 mph 98 % 0.00 in
02:27 62.4 °F 61.9 °F 29.63 in Calm   1.0 mph 98 % 0.00 in
02:32 62.4 °F 62.1 °F 29.63 in Calm     99 % 0.00 in
02:38 62.6 °F 62.2 °F 29.63 in Calm   1.0 mph 99 % 0.00 in
02:43 62.8 °F 62.4 °F 29.63 in Calm   1.0 mph 99 % 0.00 in
02:48 62.8 °F 62.4 °F 29.63 in Calm   1.0 mph 99 % 0.00 in
02:53 63.0 °F 62.6 °F 29.62 in ESE 1.0 mph 1.0 mph 99 % 0.00 in
02:58 63.0 °F 62.6 °F 29.62 in ESE 2.0 mph 2.0 mph 99 % 0.00 in
03:03 63.0 °F 62.6 °F 29.62 in ESE 1.0 mph 2.0 mph 99 % 0.00 in
03:08 63.0 °F 62.6 °F 29.62 in East 3.0 mph 3.0 mph 99 % 0.00 in
03:13 63.0 °F 62.6 °F 29.62 in East 1.0 mph 3.0 mph 99 % 0.00 in
03:18 63.0 °F 62.6 °F 29.61 in East 1.0 mph 3.0 mph 99 % 0.00 in
03:23 63.0 °F 62.6 °F 29.61 in ESE 1.0 mph 3.0 mph 99 % 0.00 in
03:28 63.0 °F 62.6 °F 29.60 in Calm   3.0 mph 99 % 0.00 in
03:33 63.0 °F 62.6 °F 29.60 in ESE 2.0 mph 3.0 mph 99 % 0.00 in
03:38 62.8 °F 62.4 °F 29.60 in East 1.0 mph 4.0 mph 99 % 0.00 in
03:43 62.8 °F 62.4 °F 29.59 in SE 1.0 mph 4.0 mph 99 % 0.00 in
03:48 62.4 °F 62.1 °F 29.58 in Calm   4.0 mph 99 % 0.00 in
03:53 62.4 °F 62.1 °F 29.58 in SE 1.0 mph 3.0 mph 99 % 0.00 in
03:58 62.2 °F 61.9 °F 29.58 in SE 1.0 mph 3.0 mph 99 % 0.00 in
04:03 62.2 °F 61.9 °F 29.58 in ESE 1.0 mph 2.0 mph 99 % 0.00 in
04:08 62.2 °F 61.9 °F 29.58 in Calm   2.0 mph 99 % 0.00 in
04:13 61.9 °F 61.5 °F 29.58 in Calm   2.0 mph 99 % 0.00 in
04:18 61.7 °F 61.3 °F 29.59 in ESE 1.0 mph 1.0 mph 99 % 0.00 in
04:23 61.9 °F 61.5 °F 29.59 in Calm   1.0 mph 99 % 0.00 in
04:28 61.7 °F 61.3 °F 29.59 in Calm   1.0 mph 99 % 0.00 in
04:33 61.5 °F 61.2 °F 29.60 in Calm   1.0 mph 99 % 0.00 in
04:38 61.9 °F 61.5 °F 29.60 in Calm   1.0 mph 99 % 0.00 in
04:43 62.1 °F 61.7 °F 29.60 in South 1.0 mph 2.0 mph 99 % 0.00 in
04:48 62.2 °F 61.9 °F 29.60 in South 1.0 mph 2.0 mph 99 % 0.00 in
04:53 62.6 °F 62.2 °F 29.59 in ESE 1.0 mph 2.0 mph 99 % 0.00 in
04:58 62.8 °F 62.4 °F 29.60 in SSE 1.0 mph 2.0 mph 99 % 0.00 in
05:03 63.0 °F 62.6 °F 29.60 in SSE 1.0 mph 2.0 mph 99 % 0.00 in
05:08 63.1 °F 62.8 °F 29.60 in SE 1.0 mph 3.0 mph 99 % 0.00 in
05:13 63.3 °F 63.0 °F 29.60 in SE 2.0 mph 3.0 mph 99 % 0.00 in
05:18 63.5 °F 63.1 °F 29.60 in South 1.0 mph 3.0 mph 99 % 0.01 in
05:23 63.7 °F 63.3 °F 29.60 in Calm   3.0 mph 99 % 0.01 in
05:28 63.7 °F 63.3 °F 29.60 in SE 1.0 mph 3.0 mph 99 % 0.01 in
05:33 63.9 °F 63.5 °F 29.60 in Calm   2.0 mph 99 % 0.01 in
05:38 63.9 °F 63.5 °F 29.60 in Calm   2.0 mph 99 % 0.01 in
05:43 63.9 °F 63.5 °F 29.60 in Calm   2.0 mph 99 % 0.01 in
05:48 63.9 °F 63.5 °F 29.60 in Calm   1.0 mph 99 % 0.01 in
05:53 63.9 °F 63.5 °F 29.59 in Calm   1.0 mph 99 % 0.01 in
05:59 63.9 °F 63.5 °F 29.60 in SE 2.0 mph 2.0 mph 99 % 0.01 in
06:04 64.0 °F 63.7 °F 29.60 in Calm   2.0 mph 99 % 0.01 in
06:09 64.0 °F 63.7 °F 29.61 in SSW 2.0 mph 2.0 mph 99 % 0.01 in
06:14 64.2 °F 63.9 °F 29.61 in SSE 2.0 mph 4.0 mph 99 % 0.01 in
06:19 64.2 °F 64.2 °F 29.61 in South 2.0 mph 4.0 mph 100 % 0.00 in
06:24 64.2 °F 64.2 °F 29.62 in SSW 2.0 mph 4.0 mph 100 % 0.00 in
06:29 64.4 °F 64.4 °F 29.62 in South 2.0 mph 4.0 mph 100 % 0.00 in
06:34 64.6 °F 64.6 °F 29.62 in SSE 1.0 mph 4.0 mph 100 % 0.00 in
06:39 64.6 °F 64.6 °F 29.62 in South 2.0 mph 4.0 mph 100 % 0.00 in
06:44 64.6 °F 64.6 °F 29.62 in Calm   4.0 mph 100 % 0.00 in
06:49 64.6 °F 64.6 °F 29.62 in SE 1.0 mph 4.0 mph 100 % 0.00 in
06:54 64.6 °F 64.6 °F 29.61 in Calm   3.0 mph 100 % 0.00 in
06:59 64.8 °F 64.8 °F 29.61 in SSE 1.0 mph 3.0 mph 100 % 0.00 in
07:04 64.9 °F 64.9 °F 29.61 in SSE 1.0 mph 3.0 mph 100 % 0.00 in
07:09 64.9 °F 64.9 °F 29.61 in SE 2.0 mph 3.0 mph 100 % 0.00 in
07:14 64.9 °F 64.9 °F 29.61 in SSE 1.0 mph 3.0 mph 100 % 0.00 in
07:19 65.1 °F 65.1 °F 29.61 in South 1.0 mph 3.0 mph 100 % 0.00 in
07:24 65.1 °F 65.1 °F 29.61 in SSE 1.0 mph 3.0 mph 100 % 0.00 in
07:29 65.1 °F 65.1 °F 29.61 in SE 1.0 mph 2.0 mph 100 % 0.00 in
07:34 65.1 °F 65.1 °F 29.62 in Calm   2.0 mph 100 % 0.00 in
07:39 65.1 °F 65.1 °F 29.62 in SSE 1.0 mph 2.0 mph 100 % 0.00 in
07:44 65.3 °F 65.3 °F 29.62 in SSE 1.0 mph 3.0 mph 100 % 0.00 in
07:49 65.5 °F 65.5 °F 29.62 in SE 2.0 mph 3.0 mph 100 % 0.00 in
07:54 65.5 °F 65.5 °F 29.62 in SSE 2.0 mph 4.0 mph 100 % 0.00 in
07:59 65.5 °F 65.5 °F 29.62 in South 2.0 mph 4.0 mph 100 % 0.00 in
08:04 65.3 °F 65.3 °F 29.62 in South 2.0 mph 4.0 mph 100 % 0.00 in
08:09 65.3 °F 65.3 °F 29.61 in Calm   3.0 mph 100 % 0.00 in
08:14 65.5 °F 65.5 °F 29.62 in Calm   3.0 mph 100 % 0.00 in
08:19 65.3 °F 65.3 °F 29.62 in Calm   3.0 mph 100 % 0.00 in
08:24 65.5 °F 65.5 °F 29.62 in SSE 1.0 mph 2.0 mph 100 % 0.00 in
08:29 65.5 °F 65.5 °F 29.61 in Calm   1.0 mph 100 % 0.00 in
08:34 65.5 °F 65.5 °F 29.61 in East 1.0 mph 2.0 mph 100 % 0.00 in
08:39 65.5 °F 65.5 °F 29.61 in ESE 1.0 mph 4.0 mph 100 % 0.00 in
08:44 65.5 °F 65.5 °F 29.61 in SE 2.0 mph 4.0 mph 100 % 0.00 in
08:49 65.7 °F 65.7 °F 29.61 in SE 2.0 mph 4.0 mph 100 % 0.00 in
08:54 65.7 °F 65.7 °F 29.61 in East 2.0 mph 4.0 mph 100 % 0.00 in
08:59 65.7 °F 65.7 °F 29.61 in SE 3.0 mph 5.0 mph 100 % 0.00 in
09:04 65.7 °F 65.7 °F 29.61 in SSE 2.0 mph 5.0 mph 100 % 0.00 in
09:09 65.8 °F 65.8 °F 29.61 in SSE 1.0 mph 5.0 mph 100 % 0.00 in
09:14 65.8 °F 65.8 °F 29.61 in SE 2.0 mph 4.0 mph 100 % 0.00 in
09:19 65.8 °F 65.8 °F 29.60 in SE 2.0 mph 4.0 mph 100 % 0.00 in
09:24 65.8 °F 65.8 °F 29.61 in SE 2.0 mph 4.0 mph 100 % 0.00 in
09:29 66.0 °F 66.0 °F 29.60 in ESE 2.0 mph 6.0 mph 100 % 0.00 in
09:34 66.2 °F 66.2 °F 29.60 in SE 4.0 mph 6.0 mph 100 % 0.00 in
09:39 66.4 °F 66.4 °F 29.61 in SW 1.0 mph 6.0 mph 100 % 0.00 in
09:44 66.6 °F 66.6 °F 29.61 in SE 3.0 mph 5.0 mph 100 % 0.00 in
09:49 66.7 °F 66.7 °F 29.60 in SE 2.0 mph 5.0 mph 100 % 0.00 in
09:54 66.9 °F 66.9 °F 29.61 in SSE 1.0 mph 6.0 mph 100 % 0.00 in
09:59 67.1 °F 67.1 °F 29.60 in SSE 2.0 mph 6.0 mph 100 % 0.00 in
10:04 67.1 °F 67.1 °F 29.60 in SE 4.0 mph 6.0 mph 100 % 0.00 in
10:09 67.5 °F 67.5 °F 29.60 in SSW 3.0 mph 7.0 mph 100 % 0.00 in
10:14 67.8 °F 67.8 °F 29.60 in SSW 2.0 mph 7.0 mph 100 % 0.00 in
10:19 68.2 °F 67.8 °F 29.61 in SE 4.0 mph 8.0 mph 99 % 0.00 in
10:24 68.2 °F 67.8 °F 29.60 in South 2.0 mph 8.0 mph 99 % 0.00 in
10:29 67.6 °F 67.1 °F 29.60 in SSE 7.0 mph 8.0 mph 98 % 0.00 in
10:34 67.3 °F 66.7 °F 29.60 in South 5.0 mph 10.0 mph 98 % 0.00 in
10:39 66.9 °F 66.0 °F 29.60 in South 3.0 mph 11.0 mph 97 % 0.00 in
10:44 66.9 °F 66.0 °F 29.60 in South 4.0 mph 11.0 mph 97 % 0.00 in
10:49 67.3 °F 66.0 °F 29.60 in South 3.0 mph 11.0 mph 96 % 0.00 in
10:54 67.6 °F 66.2 °F 29.59 in SE 5.0 mph 11.0 mph 95 % 0.00 in
10:59 67.8 °F 66.0 °F 29.59 in South 3.0 mph 11.0 mph 94 % 0.00 in
11:05 68.2 °F 66.0 °F 29.59 in SSW 5.0 mph 11.0 mph 93 % 0.00 in
11:10 68.2 °F 65.8 °F 29.59 in South 4.0 mph 10.0 mph 92 % 0.00 in
11:15 68.4 °F 65.7 °F 29.58 in SSW 1.0 mph 10.0 mph 91 % 0.00 in
11:20 68.5 °F 65.5 °F 29.57 in SW 5.0 mph 10.0 mph 90 % 0.00 in
11:25 68.7 °F 65.7 °F 29.57 in SE 4.0 mph 10.0 mph 90 % 0.00 in
11:30 68.7 °F 65.7 °F 29.57 in SSE 3.0 mph 8.0 mph 90 % 0.00 in
11:35 68.9 °F 65.5 °F 29.56 in SSW 5.0 mph 8.0 mph 89 % 0.00 in
11:40 69.1 °F 65.7 °F 29.56 in South 4.0 mph 7.0 mph 89 % 0.00 in
11:45 69.3 °F 65.8 °F 29.55 in South 3.0 mph 7.0 mph 89 % 0.00 in
11:50 69.3 °F 65.8 °F 29.55 in SSE 4.0 mph 7.0 mph 89 % 0.00 in
11:55 69.4 °F 66.0 °F 29.55 in SSE 2.0 mph 6.0 mph 89 % 0.00 in
12:00 69.6 °F 65.8 °F 29.54 in SSE 7.0 mph 7.0 mph 88 % 0.00 in
12:05 70.0 °F 66.2 °F 29.53 in South 2.0 mph 7.0 mph 88 % 0.00 in
12:10 70.3 °F 66.6 °F 29.53 in SSE 6.0 mph 8.0 mph 88 % 0.00 in
12:15 70.7 °F 66.6 °F 29.52 in SE 3.0 mph 8.0 mph 87 % 0.00 in
12:20 71.1 °F 66.7 °F 29.52 in South 4.0 mph 8.0 mph 86 % 0.00 in
12:25 71.2 °F 66.2 °F 29.52 in South 12.0 mph 13.0 mph 84 % 0.00 in
12:30 71.4 °F 66.4 °F 29.51 in SSW 8.0 mph 13.0 mph 84 % 0.00 in
12:35 71.6 °F 65.8 °F 29.51 in SW 7.0 mph 14.0 mph 82 % 0.00 in
12:40 71.8 °F 66.0 °F 29.50 in SSW 4.0 mph 14.0 mph 82 % 0.00 in
12:45 72.0 °F 66.2 °F 29.49 in South 5.0 mph 14.0 mph 82 % 0.00 in
12:50 72.3 °F 66.2 °F 29.49 in Calm   11.0 mph 81 % 0.00 in
12:55 72.9 °F 67.1 °F 29.49 in SSW 7.0 mph 9.0 mph 82 % 0.00 in
13:00 73.0 °F 66.9 °F 29.49 in SSE 3.0 mph 9.0 mph 81 % 0.00 in
13:05 73.0 °F 65.8 °F 29.48 in South 7.0 mph 16.0 mph 78 % 0.00 in
13:10 73.2 °F 66.4 °F 29.47 in WNW 4.0 mph 16.0 mph 79 % 0.00 in
13:15 73.4 °F 66.2 °F 29.47 in SSW 6.0 mph 16.0 mph 78 % 0.00 in
13:20 74.1 °F 66.7 °F 29.47 in SE 4.0 mph 11.0 mph 78 % 0.00 in
13:25 75.0 °F 66.6 °F 29.47 in SSW 4.0 mph 14.0 mph 75 % 0.00 in
13:30 75.4 °F 66.2 °F 29.46 in SW 11.0 mph 14.0 mph 73 % 0.00 in
13:35 75.4 °F 66.2 °F 29.46 in WSW 4.0 mph 14.0 mph 73 % 0.00 in
13:40 75.6 °F 65.5 °F 29.45 in WSW 4.0 mph 15.0 mph 71 % 0.00 in
13:45 75.9 °F 66.2 °F 29.45 in SSW 2.0 mph 15.0 mph 72 % 0.00 in
13:50 76.5 °F 66.0 °F 29.45 in WSW 4.0 mph 15.0 mph 70 % 0.00 in
13:55 76.3 °F 65.8 °F 29.44 in SSW 4.0 mph 12.0 mph 70 % 0.00 in
14:00 76.3 °F 65.8 °F 29.44 in SSW 8.0 mph 12.0 mph 70 % 0.00 in
14:05 76.1 °F 65.7 °F 29.44 in SW 4.0 mph 12.0 mph 70 % 0.00 in
14:11 76.3 °F 65.3 °F 29.44 in SW 4.0 mph 12.0 mph 69 % 0.00 in
14:16 76.6 °F 65.3 °F 29.44 in SSW 5.0 mph 12.0 mph 68 % 0.00 in
14:21 76.6 °F 64.9 °F 29.44 in WSW 1.0 mph 11.0 mph 67 % 0.00 in
14:26 76.8 °F 64.6 °F 29.43 in SW 3.0 mph 12.0 mph 66 % 0.00 in
14:31 76.8 °F 63.7 °F 29.43 in SSW 4.0 mph 12.0 mph 64 % 0.00 in
14:36 76.8 °F 63.3 °F 29.43 in SSW 3.0 mph 13.0 mph 63 % 0.00 in
14:41 76.8 °F 63.3 °F 29.43 in SW 4.0 mph 13.0 mph 63 % 0.00 in
14:46 77.2 °F 64.6 °F 29.42 in WSW 3.0 mph 13.0 mph 65 % 0.00 in
14:51 77.4 °F 63.9 °F 29.42 in SSW 6.0 mph 11.0 mph 63 % 0.00 in
14:56 77.5 °F 63.0 °F 29.42 in SW 4.0 mph 11.0 mph 61 % 0.00 in
15:01 77.7 °F 62.2 °F 29.42 in SSW 4.0 mph 9.0 mph 59 % 0.00 in
15:06 77.7 °F 63.1 °F 29.42 in SSE 5.0 mph 9.0 mph 61 % 0.00 in
15:11 77.7 °F 62.2 °F 29.42 in SSE 3.0 mph 9.0 mph 59 % 0.00 in
15:16 77.7 °F 61.3 °F 29.42 in North 2.0 mph 9.0 mph 57 % 0.00 in
15:21 77.7 °F 62.2 °F 29.42 in SSW 3.0 mph 8.0 mph 59 % 0.00 in
15:26 78.1 °F 62.1 °F 29.42 in SW 2.0 mph 8.0 mph 58 % 0.00 in
15:31 78.3 °F 60.3 °F 29.42 in SSW 4.0 mph 9.0 mph 54 % 0.00 in
15:36 78.1 °F 61.5 °F 29.42 in West 3.0 mph 10.0 mph 57 % 0.00 in
15:41 78.1 °F 61.2 °F 29.42 in NW 2.0 mph 10.0 mph 56 % 0.00 in
15:46 78.1 °F 61.2 °F 29.41 in SW 2.0 mph 10.0 mph 56 % 0.00 in
15:51 78.1 °F 61.2 °F 29.41 in SW 5.0 mph 8.0 mph 56 % 0.00 in
15:56 77.9 °F 61.0 °F 29.41 in WSW 2.0 mph 8.0 mph 56 % 0.00 in
16:01 77.7 °F 60.3 °F 29.41 in SSW 1.0 mph 7.0 mph 55 % 0.00 in
16:06 77.7 °F 59.7 °F 29.42 in SW 2.0 mph 7.0 mph 54 % 0.00 in
16:11 77.9 °F 60.4 °F 29.42 in South 3.0 mph 6.0 mph 55 % 0.00 in
16:16 78.1 °F 60.6 °F 29.42 in SSW 3.0 mph 6.0 mph 55 % 0.00 in
16:21 77.7 °F 60.8 °F 29.42 in West 2.0 mph 10.0 mph 56 % 0.00 in
16:26 77.7 °F 61.3 °F 29.42 in SSE 3.0 mph 10.0 mph 57 % 0.00 in
16:31 77.4 °F 61.0 °F 29.42 in South 3.0 mph 10.0 mph 57 % 0.00 in
16:36 77.2 °F 60.3 °F 29.42 in SW 1.0 mph 8.0 mph 56 % 0.00 in
16:41 76.8 °F 59.9 °F 29.43 in SSE 1.0 mph 8.0 mph 56 % 0.00 in
16:46 76.8 °F 59.4 °F 29.43 in NNW 1.0 mph 8.0 mph 55 % 0.00 in
16:51 76.8 °F 60.4 °F 29.43 in South 1.0 mph 7.0 mph 57 % 0.00 in
16:56 76.6 °F 59.7 °F 29.44 in SW 1.0 mph 5.0 mph 56 % 0.00 in
17:01 76.5 °F 60.6 °F 29.44 in SW 1.0 mph 6.0 mph 58 % 0.00 in
17:06 76.3 °F 59.9 °F 29.44 in SW 1.0 mph 6.0 mph 57 % 0.00 in
17:11 75.9 °F 60.1 °F 29.44 in Calm   6.0 mph 58 % 0.00 in
17:16 75.6 °F 59.7 °F 29.44 in SSW 2.0 mph 5.0 mph 58 % 0.00 in
17:21 75.2 °F 59.9 °F 29.45 in West 2.0 mph 4.0 mph 59 % 0.00 in
17:26 74.7 °F 59.9 °F 29.45 in Calm   4.0 mph 60 % 0.00 in
17:31 74.1 °F 60.3 °F 29.45 in Calm   4.0 mph 62 % 0.00 in
17:36 73.6 °F 60.3 °F 29.45 in Calm   4.0 mph 63 % 0.00 in
17:41 73.0 °F 59.7 °F 29.44 in Calm   3.0 mph 63 % 0.00 in
17:46 72.7 °F 60.3 °F 29.44 in SW 1.0 mph 3.0 mph 65 % 0.00 in
17:51 71.8 °F 60.6 °F 29.45 in SSW 1.0 mph 2.0 mph 68 % 0.00 in
17:56 71.1 °F 60.4 °F 29.45 in Calm   2.0 mph 69 % 0.00 in
18:01 70.3 °F 59.7 °F 29.45 in Calm   2.0 mph 69 % 0.00 in
18:06 70.2 °F 59.9 °F 29.45 in Calm   2.0 mph 70 % 0.00 in
18:11 70.0 °F 60.1 °F 29.45 in Calm     71 % 0.00 in
18:16 69.8 °F 60.4 °F 29.44 in Calm     72 % 0.00 in
18:21 69.6 °F 60.3 °F 29.44 in Calm     72 % 0.00 in
18:27 69.4 °F 60.4 °F 29.45 in SSE 1.0 mph   73 % 0.00 in
18:32 69.4 °F 61.2 °F 29.45 in South 2.0 mph 2.0 mph 75 % 0.00 in
18:37 69.1 °F 60.8 °F 29.45 in Calm   2.0 mph 75 % 0.00 in
18:42 68.9 °F 60.6 °F 29.44 in Calm   2.0 mph 75 % 0.00 in
18:47 68.7 °F 60.8 °F 29.44 in Calm   2.0 mph 76 % 0.00 in
18:52 68.5 °F 60.6 °F 29.44 in Calm   2.0 mph 76 % 0.00 in
18:57 68.0 °F 60.1 °F 29.44 in Calm   1.0 mph 76 % 0.00 in
19:02 67.6 °F 60.6 °F 29.44 in Calm     78 % 0.00 in
19:07 67.5 °F 60.8 °F 29.44 in Calm     79 % 0.00 in
19:12 66.9 °F 60.3 °F 29.44 in Calm     79 % 0.00 in
19:17 66.6 °F 60.3 °F 29.44 in Calm     80 % 0.00 in
19:22 66.4 °F 60.4 °F 29.45 in Calm   1.0 mph 81 % 0.00 in
19:27 65.8 °F 60.3 °F 29.45 in SSE 1.0 mph 1.0 mph 82 % 0.00 in
19:32 65.5 °F 60.3 °F 29.46 in Calm   1.0 mph 83 % 0.00 in
19:37 65.1 °F 60.1 °F 29.46 in Calm   1.0 mph 84 % 0.00 in
19:42 64.9 °F 59.9 °F 29.46 in Calm   1.0 mph 84 % 0.00 in
19:43 64.9 °F 59.9 °F 29.46 in Calm   1.0 mph 84 % 0.00 in
19:48 64.9 °F 60.3 °F 29.47 in Calm     85 % 0.00 in
19:53 64.6 °F 59.9 °F 29.47 in Calm     85 % 0.00 in
19:58 64.6 °F 60.3 °F 29.47 in NW 1.0 mph 1.0 mph 86 % 0.00 in
20:03 64.6 °F 60.3 °F 29.47 in Calm   2.0 mph 86 % 0.00 in
20:08 64.4 °F 60.1 °F 29.47 in Calm   2.0 mph 86 % 0.00 in
20:13 64.2 °F 60.3 °F 29.47 in Calm   2.0 mph 87 % 0.00 in
20:18 64.0 °F 60.1 °F 29.47 in Calm   1.0 mph 87 % 0.00 in
20:23 63.9 °F 60.3 °F 29.48 in Calm   1.0 mph 88 % 0.00 in
20:28 63.7 °F 60.1 °F 29.47 in Calm   1.0 mph 88 % 0.00 in
20:33 63.5 °F 60.3 °F 29.47 in WNW 1.0 mph 1.0 mph 89 % 0.00 in
20:38 63.5 °F 60.3 °F 29.47 in Calm   1.0 mph 89 % 0.00 in
20:43 63.3 °F 60.1 °F 29.46 in Calm   1.0 mph 89 % 0.00 in
20:48 63.1 °F 59.9 °F 29.46 in Calm   2.0 mph 89 % 0.00 in
20:53 63.0 °F 59.9 °F 29.45 in Calm   2.0 mph 90 % 0.00 in
20:58 62.8 °F 59.7 °F 29.45 in Calm   2.0 mph 90 % 0.00 in
21:03 62.4 °F 59.4 °F 29.45 in Calm   2.0 mph 90 % 0.00 in
21:08 62.2 °F 59.2 °F 29.45 in Calm   2.0 mph 90 % 0.00 in
21:13 61.9 °F 59.2 °F 29.46 in Calm   1.0 mph 91 % 0.00 in
21:18 61.5 °F 58.8 °F 29.47 in Calm   1.0 mph 91 % 0.00 in
21:23 61.3 °F 58.6 °F 29.48 in Calm   1.0 mph 91 % 0.00 in
21:28 61.3 °F 59.0 °F 29.47 in Calm   1.0 mph 92 % 0.00 in
21:33 61.3 °F 59.0 °F 29.48 in Calm   1.0 mph 92 % 0.00 in
21:38 61.5 °F 59.5 °F 29.49 in Calm   1.0 mph 93 % 0.00 in
21:43 61.9 °F 59.9 °F 29.50 in Calm   2.0 mph 93 % 0.00 in
21:48 62.2 °F 60.3 °F 29.52 in West 1.0 mph 4.0 mph 93 % 0.00 in
21:53 63.0 °F 60.6 °F 29.52 in NNW 3.0 mph 4.0 mph 92 % 0.00 in
21:58 63.7 °F 61.0 °F 29.52 in Calm   5.0 mph 91 % 0.00 in
22:03 64.6 °F 61.5 °F 29.51 in WNW 1.0 mph 5.0 mph 90 % 0.00 in
22:08 65.3 °F 61.7 °F 29.52 in West 8.0 mph 8.0 mph 88 % 0.00 in
22:13 66.0 °F 60.4 °F 29.54 in Calm   8.0 mph 82 % 0.00 in
22:18 66.2 °F 59.2 °F 29.54 in NW 1.0 mph 8.0 mph 78 % 0.00 in
22:23 66.6 °F 56.5 °F 29.54 in WNW 3.0 mph 8.0 mph 70 % 0.00 in
22:28 67.6 °F 54.7 °F 29.54 in WNW 4.0 mph 12.0 mph 63 % 0.00 in
22:33 68.2 °F 53.8 °F 29.55 in WNW 4.0 mph 13.0 mph 60 % 0.00 in
22:38 68.4 °F 54.0 °F 29.56 in NNW 5.0 mph 13.0 mph 60 % 0.00 in
22:43 68.0 °F 53.6 °F 29.56 in South 1.0 mph 13.0 mph 60 % 0.00 in
22:49 67.6 °F 53.8 °F 29.58 in NW 16.0 mph 16.0 mph 61 % 0.00 in
22:54 65.8 °F 54.5 °F 29.58 in NW 6.0 mph 17.0 mph 67 % 0.00 in
22:59 64.2 °F 55.0 °F 29.58 in West 5.0 mph 17.0 mph 72 % 0.00 in
23:04 63.1 °F 54.7 °F 29.59 in West 2.0 mph 17.0 mph 74 % 0.01 in
23:09 62.8 °F 53.6 °F 29.58 in WNW 6.0 mph 16.0 mph 72 % 0.01 in
23:14 63.0 °F 53.8 °F 29.56 in NW 9.0 mph 10.0 mph 72 % 0.01 in
23:19 63.0 °F 53.4 °F 29.56 in NNW 7.0 mph 10.0 mph 71 % 0.01 in
23:24 63.1 °F 53.6 °F 29.56 in WNW 5.0 mph 10.0 mph 71 % 0.01 in
23:29 63.1 °F 53.6 °F 29.57 in SSW 2.0 mph 12.0 mph 71 % 0.01 in
23:34 63.1 °F 53.2 °F 29.56 in NW 6.0 mph 12.0 mph 70 % 0.01 in
23:39 63.0 °F 53.4 °F 29.56 in NW 2.0 mph 12.0 mph 71 % 0.01 in
23:44 63.0 °F 53.4 °F 29.56 in Calm   11.0 mph 71 % 0.01 in
23:50 62.8 °F 53.2 °F 29.56 in Calm   8.0 mph 71 % 0.01 in
23:55 62.4 °F 53.2 °F 29.57 in Calm   5.0 mph 72 % 0.01 in
Spring, Texas: Villages of Bridgestone
Compliments of Weather Underground - 2.75 mb

Script developed by  Jim McMurry - jmcmurry@mwt.net Adapted for the template by  Wim van der Kuil - Leuven-Template.eu

You find our weather info also at:

UK Metoffice

WeatherCloud

Weather Underground

Mid-South Weather Network

AWEKAS

Citizen Weather Observer Program (CWOP)

HAMweather, WeatherForYou, PWS Weather

Equipment we use:

Weather-station
Davis Vantage Vue

Weather-program
Meteohub

Weather-server
Debian 7.9 x86 (Guest)

Provider
DreamHost

Davis Vantage Vue

Meteohub

Debian 7.9 x86 (Guest)

DreamHost